sensor_id;sensor_type;location;lat;lon;timestamp;temperature;humidity
24860;DHT22;12936;52.006;4.350;2022-11-20T00:01:35;1.90;99.90
24860;DHT22;12936;52.006;4.350;2022-11-20T00:04:04;1.90;99.90
24860;DHT22;12936;52.006;4.350;2022-11-20T00:06:32;1.90;99.90
24860;DHT22;12936;52.006;4.350;2022-11-20T00:09:00;1.90;99.90
24860;DHT22;12936;52.006;4.350;2022-11-20T00:11:31;1.90;99.90
24860;DHT22;12936;52.006;4.350;2022-11-20T00:14:00;1.90;99.90
24860;DHT22;12936;52.006;4.350;2022-11-20T00:16:31;1.90;99.90
24860;DHT22;12936;52.006;4.350;2022-11-20T00:19:00;1.90;99.90
24860;DHT22;12936;52.006;4.350;2022-11-20T00:21:29;1.90;99.90
24860;DHT22;12936;52.006;4.350;2022-11-20T00:23:57;1.90;99.90
24860;DHT22;12936;52.006;4.350;2022-11-20T00:26:26;1.90;99.90
24860;DHT22;12936;52.006;4.350;2022-11-20T00:28:57;1.90;99.90
24860;DHT22;12936;52.006;4.350;2022-11-20T00:31:26;1.90;99.90
24860;DHT22;12936;52.006;4.350;2022-11-20T00:33:54;1.90;99.90
24860;DHT22;12936;52.006;4.350;2022-11-20T00:36:24;1.90;99.90
24860;DHT22;12936;52.006;4.350;2022-11-20T00:38:54;1.80;99.90
24860;DHT22;12936;52.006;4.350;2022-11-20T00:41:23;1.80;99.90
24860;DHT22;12936;52.006;4.350;2022-11-20T00:43:51;1.80;99.90
24860;DHT22;12936;52.006;4.350;2022-11-20T00:46:23;1.80;99.90
24860;DHT22;12936;52.006;4.350;2022-11-20T00:48:51;1.80;99.90
24860;DHT22;12936;52.006;4.350;2022-11-20T00:51:20;1.80;99.90
24860;DHT22;12936;52.006;4.350;2022-11-20T00:53:48;1.80;99.90
24860;DHT22;12936;52.006;4.350;2022-11-20T00:56:18;1.80;99.90
24860;DHT22;12936;52.006;4.350;2022-11-20T00:58:47;1.80;99.90
24860;DHT22;12936;52.006;4.350;2022-11-20T01:01:18;1.80;99.90
24860;DHT22;12936;52.006;4.350;2022-11-20T01:03:49;1.70;99.90
24860;DHT22;12936;52.006;4.350;2022-11-20T01:06:19;1.80;99.90
24860;DHT22;12936;52.006;4.350;2022-11-20T01:08:47;1.80;99.90
24860;DHT22;12936;52.006;4.350;2022-11-20T01:11:18;1.70;99.90
24860;DHT22;12936;52.006;4.350;2022-11-20T01:13:48;1.70;99.90
24860;DHT22;12936;52.006;4.350;2022-11-20T01:16:21;1.70;99.90
24860;DHT22;12936;52.006;4.350;2022-11-20T01:18:52;1.70;99.90
24860;DHT22;12936;52.006;4.350;2022-11-20T01:21:22;1.70;99.90
24860;DHT22;12936;52.006;4.350;2022-11-20T01:23:51;1.70;99.90
24860;DHT22;12936;52.006;4.350;2022-11-20T01:26:20;1.70;99.90
24860;DHT22;12936;52.006;4.350;2022-11-20T01:28:49;1.70;99.90
24860;DHT22;12936;52.006;4.350;2022-11-20T01:31:19;1.70;99.90
24860;DHT22;12936;52.006;4.350;2022-11-20T01:33:50;1.70;99.90
24860;DHT22;12936;52.006;4.350;2022-11-20T01:36:22;1.70;99.90
24860;DHT22;12936;52.006;4.350;2022-11-20T01:38:51;1.70;99.90
24860;DHT22;12936;52.006;4.350;2022-11-20T01:41:19;1.70;99.90
24860;DHT22;12936;52.006;4.350;2022-11-20T01:44:02;1.70;99.90
24860;DHT22;12936;52.006;4.350;2022-11-20T01:46:31;1.70;99.90
24860;DHT22;12936;52.006;4.350;2022-11-20T01:49:02;1.70;99.90
24860;DHT22;12936;52.006;4.350;2022-11-20T01:51:35;1.70;99.90
24860;DHT22;12936;52.006;4.350;2022-11-20T01:54:27;1.70;99.90
24860;DHT22;12936;52.006;4.350;2022-11-20T01:57:00;1.70;99.90
24860;DHT22;12936;52.006;4.350;2022-11-20T01:59:29;1.70;99.90
24860;DHT22;12936;52.006;4.350;2022-11-20T02:01:57;1.70;99.90
24860;DHT22;12936;52.006;4.350;2022-11-20T02:04:26;1.70;99.90
24860;DHT22;12936;52.006;4.350;2022-11-20T02:06:58;1.70;99.90
24860;DHT22;12936;52.006;4.350;2022-11-20T02:09:27;1.70;99.90
24860;DHT22;12936;52.006;4.350;2022-11-20T02:11:55;1.70;99.90
24860;DHT22;12936;52.006;4.350;2022-11-20T02:14:24;1.80;99.90
24860;DHT22;12936;52.006;4.350;2022-11-20T02:16:52;1.70;99.90
24860;DHT22;12936;52.006;4.350;2022-11-20T02:19:24;1.70;99.90
24860;DHT22;12936;52.006;4.350;2022-11-20T02:22:02;1.70;99.90
24860;DHT22;12936;52.006;4.350;2022-11-20T02:24:34;1.70;99.90
24860;DHT22;12936;52.006;4.350;2022-11-20T02:27:04;1.60;99.90
24860;DHT22;12936;52.006;4.350;2022-11-20T02:29:36;1.60;99.90
24860;DHT22;12936;52.006;4.350;2022-11-20T02:32:06;1.60;99.90
24860;DHT22;12936;52.006;4.350;2022-11-20T02:34:34;1.60;99.90
24860;DHT22;12936;52.006;4.350;2022-11-20T02:37:02;1.70;99.90
24860;DHT22;12936;52.006;4.350;2022-11-20T02:39:30;1.60;99.90
24860;DHT22;12936;52.006;4.350;2022-11-20T02:42:01;1.60;99.90
24860;DHT22;12936;52.006;4.350;2022-11-20T02:44:29;1.60;99.90
24860;DHT22;12936;52.006;4.350;2022-11-20T02:46:57;1.60;99.90
24860;DHT22;12936;52.006;4.350;2022-11-20T02:49:26;1.60;99.90
24860;DHT22;12936;52.006;4.350;2022-11-20T02:51:54;1.60;99.90
24860;DHT22;12936;52.006;4.350;2022-11-20T02:54:22;1.60;99.90
24860;DHT22;12936;52.006;4.350;2022-11-20T02:56:50;1.60;99.90
24860;DHT22;12936;52.006;4.350;2022-11-20T02:59:20;1.60;99.90
24860;DHT22;12936;52.006;4.350;2022-11-20T03:01:48;1.60;99.90
24860;DHT22;12936;52.006;4.350;2022-11-20T03:04:16;1.60;99.90
24860;DHT22;12936;52.006;4.350;2022-11-20T03:06:44;1.60;99.90
24860;DHT22;12936;52.006;4.350;2022-11-20T03:09:13;1.60;99.90
24860;DHT22;12936;52.006;4.350;2022-11-20T03:11:41;1.60;99.90
24860;DHT22;12936;52.006;4.350;2022-11-20T03:14:09;1.60;99.90
24860;DHT22;12936;52.006;4.350;2022-11-20T03:16:38;1.60;99.90
24860;DHT22;12936;52.006;4.350;2022-11-20T03:19:06;1.60;99.90
24860;DHT22;12936;52.006;4.350;2022-11-20T03:21:35;1.60;99.90
24860;DHT22;12936;52.006;4.350;2022-11-20T03:24:03;1.60;99.90
24860;DHT22;12936;52.006;4.350;2022-11-20T03:26:32;1.60;99.90
24860;DHT22;12936;52.006;4.350;2022-11-20T03:29:04;1.50;99.90
24860;DHT22;12936;52.006;4.350;2022-11-20T03:31:34;1.60;99.90
24860;DHT22;12936;52.006;4.350;2022-11-20T03:34:04;1.60;99.90
24860;DHT22;12936;52.006;4.350;2022-11-20T03:36:32;1.50;99.90
24860;DHT22;12936;52.006;4.350;2022-11-20T03:39:00;1.50;99.90
24860;DHT22;12936;52.006;4.350;2022-11-20T03:41:30;1.50;99.90
24860;DHT22;12936;52.006;4.350;2022-11-20T03:44:00;1.50;99.90
24860;DHT22;12936;52.006;4.350;2022-11-20T03:46:28;1.50;99.90
24860;DHT22;12936;52.006;4.350;2022-11-20T03:48:57;1.60;99.90
24860;DHT22;12936;52.006;4.350;2022-11-20T03:51:27;1.60;99.90
24860;DHT22;12936;52.006;4.350;2022-11-20T03:54:01;1.50;99.90
24860;DHT22;12936;52.006;4.350;2022-11-20T03:56:32;1.50;99.90
24860;DHT22;12936;52.006;4.350;2022-11-20T03:59:00;1.50;99.90
24860;DHT22;12936;52.006;4.350;2022-11-20T04:01:30;1.50;99.90
24860;DHT22;12936;52.006;4.350;2022-11-20T04:03:59;1.50;99.90
24860;DHT22;12936;52.006;4.350;2022-11-20T04:06:30;1.50;99.90
24860;DHT22;12936;52.006;4.350;2022-11-20T04:08:58;1.50;99.90
24860;DHT22;12936;52.006;4.350;2022-11-20T04:11:28;1.50;99.90
24860;DHT22;12936;52.006;4.350;2022-11-20T04:13:57;1.50;99.90
24860;DHT22;12936;52.006;4.350;2022-11-20T04:16:26;1.50;99.90
24860;DHT22;12936;52.006;4.350;2022-11-20T04:18:57;1.50;99.90
24860;DHT22;12936;52.006;4.350;2022-11-20T04:21:26;1.50;99.90
24860;DHT22;12936;52.006;4.350;2022-11-20T04:23:55;1.50;99.90
24860;DHT22;12936;52.006;4.350;2022-11-20T04:26:25;1.50;99.90
24860;DHT22;12936;52.006;4.350;2022-11-20T04:28:53;1.40;99.90
24860;DHT22;12936;52.006;4.350;2022-11-20T04:31:23;1.50;99.90
24860;DHT22;12936;52.006;4.350;2022-11-20T04:33:52;1.40;99.90
24860;DHT22;12936;52.006;4.350;2022-11-20T04:36:21;1.50;99.90
24860;DHT22;12936;52.006;4.350;2022-11-20T04:38:51;1.40;99.90
24860;DHT22;12936;52.006;4.350;2022-11-20T04:41:26;1.40;99.90
24860;DHT22;12936;52.006;4.350;2022-11-20T04:43:56;1.40;99.90
24860;DHT22;12936;52.006;4.350;2022-11-20T04:46:27;1.50;99.90
24860;DHT22;12936;52.006;4.350;2022-11-20T04:48:55;1.50;99.90
24860;DHT22;12936;52.006;4.350;2022-11-20T04:51:23;1.50;99.90
24860;DHT22;12936;52.006;4.350;2022-11-20T04:53:51;1.40;99.90
24860;DHT22;12936;52.006;4.350;2022-11-20T04:56:20;1.40;99.90
24860;DHT22;12936;52.006;4.350;2022-11-20T04:58:49;1.40;99.90
24860;DHT22;12936;52.006;4.350;2022-11-20T05:01:20;1.40;99.90
24860;DHT22;12936;52.006;4.350;2022-11-20T05:03:48;1.50;99.90
24860;DHT22;12936;52.006;4.350;2022-11-20T05:06:19;1.40;99.90
24860;DHT22;12936;52.006;4.350;2022-11-20T05:08:48;1.40;99.90
24860;DHT22;12936;52.006;4.350;2022-11-20T05:11:18;1.50;99.90
24860;DHT22;12936;52.006;4.350;2022-11-20T05:13:48;1.40;99.90
24860;DHT22;12936;52.006;4.350;2022-11-20T05:16:18;1.50;99.90
24860;DHT22;12936;52.006;4.350;2022-11-20T05:18:47;1.50;99.90
24860;DHT22;12936;52.006;4.350;2022-11-20T05:21:16;1.40;99.90
24860;DHT22;12936;52.006;4.350;2022-11-20T05:23:45;1.50;99.90
24860;DHT22;12936;52.006;4.350;2022-11-20T05:26:15;1.40;99.90
24860;DHT22;12936;52.006;4.350;2022-11-20T05:28:43;1.50;99.90
24860;DHT22;12936;52.006;4.350;2022-11-20T05:31:15;1.40;99.90
24860;DHT22;12936;52.006;4.350;2022-11-20T05:33:52;1.40;99.90
24860;DHT22;12936;52.006;4.350;2022-11-20T05:36:20;1.40;99.90
24860;DHT22;12936;52.006;4.350;2022-11-20T05:38:48;1.40;99.90
24860;DHT22;12936;52.006;4.350;2022-11-20T05:41:20;1.40;99.90
24860;DHT22;12936;52.006;4.350;2022-11-20T05:43:50;1.40;99.90
24860;DHT22;12936;52.006;4.350;2022-11-20T05:46:21;1.40;99.90
24860;DHT22;12936;52.006;4.350;2022-11-20T05:48:55;1.40;99.90
24860;DHT22;12936;52.006;4.350;2022-11-20T05:51:24;1.40;99.90
24860;DHT22;12936;52.006;4.350;2022-11-20T05:53:52;1.50;99.90
24860;DHT22;12936;52.006;4.350;2022-11-20T05:56:21;1.40;99.90
24860;DHT22;12936;52.006;4.350;2022-11-20T05:58:49;1.40;99.90
24860;DHT22;12936;52.006;4.350;2022-11-20T06:01:21;1.40;99.90
24860;DHT22;12936;52.006;4.350;2022-11-20T06:03:50;1.40;99.90
24860;DHT22;12936;52.006;4.350;2022-11-20T06:06:18;1.50;99.90
24860;DHT22;12936;52.006;4.350;2022-11-20T06:08:47;1.40;99.90
24860;DHT22;12936;52.006;4.350;2022-11-20T06:11:16;1.40;99.90
24860;DHT22;12936;52.006;4.350;2022-11-20T06:13:45;1.40;99.90
24860;DHT22;12936;52.006;4.350;2022-11-20T06:16:15;1.40;99.90
24860;DHT22;12936;52.006;4.350;2022-11-20T06:18:45;1.40;99.90
24860;DHT22;12936;52.006;4.350;2022-11-20T06:21:14;1.40;99.90
24860;DHT22;12936;52.006;4.350;2022-11-20T06:23:43;1.50;99.90
24860;DHT22;12936;52.006;4.350;2022-11-20T06:26:15;1.50;99.90
24860;DHT22;12936;52.006;4.350;2022-11-20T06:28:44;1.50;99.90
24860;DHT22;12936;52.006;4.350;2022-11-20T06:31:13;1.50;99.90
24860;DHT22;12936;52.006;4.350;2022-11-20T06:33:44;1.50;99.90
24860;DHT22;12936;52.006;4.350;2022-11-20T06:36:13;1.50;99.90
24860;DHT22;12936;52.006;4.350;2022-11-20T06:38:42;1.50;99.90
24860;DHT22;12936;52.006;4.350;2022-11-20T06:41:12;1.50;99.90
24860;DHT22;12936;52.006;4.350;2022-11-20T06:43:40;1.50;99.90
24860;DHT22;12936;52.006;4.350;2022-11-20T06:46:10;1.60;99.90
24860;DHT22;12936;52.006;4.350;2022-11-20T06:48:38;1.60;99.90
24860;DHT22;12936;52.006;4.350;2022-11-20T06:51:08;1.60;99.90
24860;DHT22;12936;52.006;4.350;2022-11-20T06:53:36;1.60;99.90
24860;DHT22;12936;52.006;4.350;2022-11-20T06:56:05;1.60;99.90
24860;DHT22;12936;52.006;4.350;2022-11-20T06:58:35;1.60;99.90
24860;DHT22;12936;52.006;4.350;2022-11-20T07:01:05;1.60;99.90
24860;DHT22;12936;52.006;4.350;2022-11-20T07:03:34;1.60;99.90
24860;DHT22;12936;52.006;4.350;2022-11-20T07:06:03;1.60;99.90
24860;DHT22;12936;52.006;4.350;2022-11-20T07:08:33;1.60;99.90
24860;DHT22;12936;52.006;4.350;2022-11-20T07:11:03;1.60;99.90
24860;DHT22;12936;52.006;4.350;2022-11-20T07:13:31;1.60;99.90
24860;DHT22;12936;52.006;4.350;2022-11-20T07:16:00;1.60;99.90
24860;DHT22;12936;52.006;4.350;2022-11-20T07:18:29;1.60;99.90
24860;DHT22;12936;52.006;4.350;2022-11-20T07:21:00;1.70;99.90
24860;DHT22;12936;52.006;4.350;2022-11-20T07:23:28;1.60;99.90
24860;DHT22;12936;52.006;4.350;2022-11-20T07:26:02;1.70;99.90
24860;DHT22;12936;52.006;4.350;2022-11-20T07:28:30;1.70;99.90
24860;DHT22;12936;52.006;4.350;2022-11-20T07:30:58;1.70;99.90
24860;DHT22;12936;52.006;4.350;2022-11-20T07:33:26;1.70;99.90
24860;DHT22;12936;52.006;4.350;2022-11-20T07:35:54;1.70;99.90
24860;DHT22;12936;52.006;4.350;2022-11-20T07:38:22;1.70;99.90
24860;DHT22;12936;52.006;4.350;2022-11-20T07:40:53;1.70;99.90
24860;DHT22;12936;52.006;4.350;2022-11-20T07:43:23;1.80;99.90
24860;DHT22;12936;52.006;4.350;2022-11-20T07:45:55;1.80;99.90
24860;DHT22;12936;52.006;4.350;2022-11-20T07:48:24;1.80;99.90
24860;DHT22;12936;52.006;4.350;2022-11-20T07:50:53;1.80;99.90
24860;DHT22;12936;52.006;4.350;2022-11-20T07:53:22;1.80;99.90
24860;DHT22;12936;52.006;4.350;2022-11-20T07:55:50;1.90;99.90
24860;DHT22;12936;52.006;4.350;2022-11-20T07:58:19;1.90;99.90
24860;DHT22;12936;52.006;4.350;2022-11-20T08:00:49;1.90;99.90
24860;DHT22;12936;52.006;4.350;2022-11-20T08:03:17;1.90;99.90
24860;DHT22;12936;52.006;4.350;2022-11-20T08:05:51;1.90;99.90
24860;DHT22;12936;52.006;4.350;2022-11-20T08:08:19;1.90;99.90
24860;DHT22;12936;52.006;4.350;2022-11-20T08:10:47;1.90;99.90
24860;DHT22;12936;52.006;4.350;2022-11-20T08:13:15;2.00;99.90
24860;DHT22;12936;52.006;4.350;2022-11-20T08:16:02;2.00;99.90
24860;DHT22;12936;52.006;4.350;2022-11-20T08:18:30;2.00;99.90
24860;DHT22;12936;52.006;4.350;2022-11-20T08:21:02;2.00;99.90
24860;DHT22;12936;52.006;4.350;2022-11-20T08:23:31;2.00;99.90
24860;DHT22;12936;52.006;4.350;2022-11-20T08:25:59;2.00;99.90
24860;DHT22;12936;52.006;4.350;2022-11-20T08:28:27;2.00;99.90
24860;DHT22;12936;52.006;4.350;2022-11-20T08:30:58;2.10;99.90
24860;DHT22;12936;52.006;4.350;2022-11-20T08:33:28;2.10;99.90
24860;DHT22;12936;52.006;4.350;2022-11-20T08:35:59;2.10;99.90
24860;DHT22;12936;52.006;4.350;2022-11-20T08:38:27;2.10;99.90
24860;DHT22;12936;52.006;4.350;2022-11-20T08:40:56;2.10;99.90
24860;DHT22;12936;52.006;4.350;2022-11-20T08:43:42;2.20;99.90
24860;DHT22;12936;52.006;4.350;2022-11-20T08:46:10;2.20;99.90
24860;DHT22;12936;52.006;4.350;2022-11-20T08:48:40;2.30;99.90
24860;DHT22;12936;52.006;4.350;2022-11-20T08:51:08;2.20;99.90
24860;DHT22;12936;52.006;4.350;2022-11-20T08:53:37;2.30;99.90
24860;DHT22;12936;52.006;4.350;2022-11-20T08:56:05;2.30;99.90
24860;DHT22;12936;52.006;4.350;2022-11-20T08:58:33;2.30;99.90
24860;DHT22;12936;52.006;4.350;2022-11-20T09:01:22;2.30;99.90
24860;DHT22;12936;52.006;4.350;2022-11-20T09:03:54;2.30;99.90
24860;DHT22;12936;52.006;4.350;2022-11-20T09:06:22;2.30;99.90
24860;DHT22;12936;52.006;4.350;2022-11-20T09:08:52;2.40;99.90
24860;DHT22;12936;52.006;4.350;2022-11-20T09:11:20;2.40;99.90
24860;DHT22;12936;52.006;4.350;2022-11-20T09:13:48;2.40;99.90
24860;DHT22;12936;52.006;4.350;2022-11-20T09:16:16;2.50;99.90
24860;DHT22;12936;52.006;4.350;2022-11-20T09:18:44;2.50;99.90
24860;DHT22;12936;52.006;4.350;2022-11-20T09:21:14;2.50;99.90
24860;DHT22;12936;52.006;4.350;2022-11-20T09:23:42;2.50;99.90
24860;DHT22;12936;52.006;4.350;2022-11-20T09:26:11;2.60;99.90
24860;DHT22;12936;52.006;4.350;2022-11-20T09:28:40;2.60;99.90
24860;DHT22;12936;52.006;4.350;2022-11-20T09:31:09;2.60;99.90
24860;DHT22;12936;52.006;4.350;2022-11-20T09:33:37;2.70;99.90
24860;DHT22;12936;52.006;4.350;2022-11-20T09:36:06;2.70;99.90
24860;DHT22;12936;52.006;4.350;2022-11-20T09:38:36;2.70;99.90
24860;DHT22;12936;52.006;4.350;2022-11-20T09:41:10;2.80;99.90
24860;DHT22;12936;52.006;4.350;2022-11-20T09:43:52;2.80;99.90
24860;DHT22;12936;52.006;4.350;2022-11-20T09:46:29;2.80;99.90
24860;DHT22;12936;52.006;4.350;2022-11-20T09:49:22;2.90;99.90
24860;DHT22;12936;52.006;4.350;2022-11-20T09:51:59;2.90;99.90
24860;DHT22;12936;52.006;4.350;2022-11-20T09:54:31;2.90;99.90
24860;DHT22;12936;52.006;4.350;2022-11-20T09:57:01;3.00;99.90
24860;DHT22;12936;52.006;4.350;2022-11-20T09:59:36;3.00;99.90
24860;DHT22;12936;52.006;4.350;2022-11-20T10:02:15;3.00;99.90
24860;DHT22;12936;52.006;4.350;2022-11-20T10:04:51;3.10;99.90
24860;DHT22;12936;52.006;4.350;2022-11-20T10:07:24;3.10;99.90
24860;DHT22;12936;52.006;4.350;2022-11-20T10:10:00;3.10;99.90
24860;DHT22;12936;52.006;4.350;2022-11-20T10:12:37;3.10;99.90
24860;DHT22;12936;52.006;4.350;2022-11-20T10:15:23;3.10;99.90
24860;DHT22;12936;52.006;4.350;2022-11-20T10:18:06;3.10;99.90
24860;DHT22;12936;52.006;4.350;2022-11-20T10:20:43;3.20;99.90
24860;DHT22;12936;52.006;4.350;2022-11-20T10:23:35;3.30;99.90
24860;DHT22;12936;52.006;4.350;2022-11-20T10:26:17;3.30;99.90
24860;DHT22;12936;52.006;4.350;2022-11-20T10:29:00;3.30;99.90
24860;DHT22;12936;52.006;4.350;2022-11-20T10:31:36;3.40;99.90
24860;DHT22;12936;52.006;4.350;2022-11-20T10:34:07;3.40;99.90
24860;DHT22;12936;52.006;4.350;2022-11-20T10:36:54;3.50;99.90
24860;DHT22;12936;52.006;4.350;2022-11-20T10:39:31;3.50;99.90
24860;DHT22;12936;52.006;4.350;2022-11-20T10:42:02;3.50;99.90
24860;DHT22;12936;52.006;4.350;2022-11-20T10:44:36;3.60;99.90
24860;DHT22;12936;52.006;4.350;2022-11-20T10:47:31;3.60;99.90
24860;DHT22;12936;52.006;4.350;2022-11-20T10:50:03;3.70;99.90
24860;DHT22;12936;52.006;4.350;2022-11-20T10:52:37;3.70;99.90
24860;DHT22;12936;52.006;4.350;2022-11-20T10:55:17;3.80;99.90
24860;DHT22;12936;52.006;4.350;2022-11-20T10:58:00;3.80;99.90
24860;DHT22;12936;52.006;4.350;2022-11-20T11:00:31;3.90;99.90
24860;DHT22;12936;52.006;4.350;2022-11-20T11:02:59;4.00;99.90
24860;DHT22;12936;52.006;4.350;2022-11-20T11:05:36;4.10;99.90
24860;DHT22;12936;52.006;4.350;2022-11-20T11:08:12;4.10;99.90
24860;DHT22;12936;52.006;4.350;2022-11-20T11:10:45;4.20;99.90
24860;DHT22;12936;52.006;4.350;2022-11-20T11:13:25;4.20;99.90
24860;DHT22;12936;52.006;4.350;2022-11-20T11:16:01;4.30;99.90
24860;DHT22;12936;52.006;4.350;2022-11-20T11:18:32;4.30;99.90
24860;DHT22;12936;52.006;4.350;2022-11-20T11:21:03;4.40;99.90
24860;DHT22;12936;52.006;4.350;2022-11-20T11:23:33;4.50;99.90
24860;DHT22;12936;52.006;4.350;2022-11-20T11:26:04;4.50;99.90
24860;DHT22;12936;52.006;4.350;2022-11-20T11:28:34;4.60;99.90
24860;DHT22;12936;52.006;4.350;2022-11-20T11:31:03;4.60;99.90
24860;DHT22;12936;52.006;4.350;2022-11-20T11:33:32;4.60;99.90
24860;DHT22;12936;52.006;4.350;2022-11-20T11:36:04;4.70;99.90
24860;DHT22;12936;52.006;4.350;2022-11-20T11:38:35;4.80;99.90
24860;DHT22;12936;52.006;4.350;2022-11-20T11:41:06;4.80;99.90
24860;DHT22;12936;52.006;4.350;2022-11-20T11:43:37;4.90;99.90
24860;DHT22;12936;52.006;4.350;2022-11-20T11:46:30;5.00;99.90
24860;DHT22;12936;52.006;4.350;2022-11-20T11:49:01;5.10;99.90
24860;DHT22;12936;52.006;4.350;2022-11-20T11:51:34;5.10;99.90
24860;DHT22;12936;52.006;4.350;2022-11-20T11:54:13;5.20;99.90
24860;DHT22;12936;52.006;4.350;2022-11-20T11:56:43;5.20;99.90
24860;DHT22;12936;52.006;4.350;2022-11-20T11:59:21;5.20;99.90
24860;DHT22;12936;52.006;4.350;2022-11-20T12:01:54;5.30;99.90
24860;DHT22;12936;52.006;4.350;2022-11-20T12:04:36;5.30;99.90
24860;DHT22;12936;52.006;4.350;2022-11-20T12:07:11;5.40;99.90
24860;DHT22;12936;52.006;4.350;2022-11-20T12:10:02;5.40;99.90
24860;DHT22;12936;52.006;4.350;2022-11-20T12:12:36;5.40;99.90
24860;DHT22;12936;52.006;4.350;2022-11-20T12:15:11;5.40;99.90
24860;DHT22;12936;52.006;4.350;2022-11-20T12:17:40;5.50;99.90
24860;DHT22;12936;52.006;4.350;2022-11-20T12:20:14;5.40;99.90
24860;DHT22;12936;52.006;4.350;2022-11-20T12:22:53;5.60;99.90
24860;DHT22;12936;52.006;4.350;2022-11-20T12:25:26;5.50;99.90
24860;DHT22;12936;52.006;4.350;2022-11-20T12:28:18;5.60;99.90
24860;DHT22;12936;52.006;4.350;2022-11-20T12:31:13;5.60;99.90
24860;DHT22;12936;52.006;4.350;2022-11-20T12:34:18;5.60;99.90
24860;DHT22;12936;52.006;4.350;2022-11-20T12:36:54;5.60;99.90
24860;DHT22;12936;52.006;4.350;2022-11-20T12:39:34;5.60;99.90
24860;DHT22;12936;52.006;4.350;2022-11-20T12:48:36;5.60;99.90
24860;DHT22;12936;52.006;4.350;2022-11-20T12:51:26;5.60;99.90
24860;DHT22;12936;52.006;4.350;2022-11-20T12:54:14;5.60;99.90
24860;DHT22;12936;52.006;4.350;2022-11-20T12:56:52;5.60;99.90
24860;DHT22;12936;52.006;4.350;2022-11-20T12:59:39;5.60;99.90
24860;DHT22;12936;52.006;4.350;2022-11-20T13:02:22;5.60;99.90
24860;DHT22;12936;52.006;4.350;2022-11-20T13:05:11;5.50;99.90
24860;DHT22;12936;52.006;4.350;2022-11-20T13:07:44;5.50;99.90
24860;DHT22;12936;52.006;4.350;2022-11-20T13:10:18;5.50;99.90
24860;DHT22;12936;52.006;4.350;2022-11-20T13:12:54;5.60;99.90
24860;DHT22;12936;52.006;4.350;2022-11-20T13:15:36;5.60;99.90
24860;DHT22;12936;52.006;4.350;2022-11-20T13:18:09;5.50;99.90
24860;DHT22;12936;52.006;4.350;2022-11-20T13:20:44;5.50;99.90
24860;DHT22;12936;52.006;4.350;2022-11-20T13:23:23;5.50;99.90
24860;DHT22;12936;52.006;4.350;2022-11-20T13:26:01;5.50;99.90
24860;DHT22;12936;52.006;4.350;2022-11-20T13:28:30;5.50;99.90
24860;DHT22;12936;52.006;4.350;2022-11-20T13:30:58;5.60;99.90
24860;DHT22;12936;52.006;4.350;2022-11-20T13:33:30;5.50;99.90
24860;DHT22;12936;52.006;4.350;2022-11-20T13:36:01;5.50;99.90
24860;DHT22;12936;52.006;4.350;2022-11-20T13:38:42;5.50;99.90
24860;DHT22;12936;52.006;4.350;2022-11-20T13:41:11;5.50;99.90
24860;DHT22;12936;52.006;4.350;2022-11-20T13:44:04;5.50;99.90
24860;DHT22;12936;52.006;4.350;2022-11-20T13:46:37;5.60;99.90
24860;DHT22;12936;52.006;4.350;2022-11-20T13:49:14;5.50;99.90
24860;DHT22;12936;52.006;4.350;2022-11-20T13:51:46;5.60;99.90
24860;DHT22;12936;52.006;4.350;2022-11-20T13:54:27;5.60;99.90
24860;DHT22;12936;52.006;4.350;2022-11-20T13:57:11;5.50;99.90
24860;DHT22;12936;52.006;4.350;2022-11-20T13:59:51;5.50;99.90
24860;DHT22;12936;52.006;4.350;2022-11-20T14:02:23;5.60;99.90
24860;DHT22;12936;52.006;4.350;2022-11-20T14:04:54;5.50;99.90
24860;DHT22;12936;52.006;4.350;2022-11-20T14:07:31;5.50;99.90
24860;DHT22;12936;52.006;4.350;2022-11-20T14:10:00;5.50;99.90
24860;DHT22;12936;52.006;4.350;2022-11-20T14:12:30;5.50;99.90
24860;DHT22;12936;52.006;4.350;2022-11-20T14:14:58;5.50;99.90
24860;DHT22;12936;52.006;4.350;2022-11-20T14:17:30;5.40;99.90
24860;DHT22;12936;52.006;4.350;2022-11-20T14:20:01;5.40;99.90
24860;DHT22;12936;52.006;4.350;2022-11-20T14:22:31;5.50;99.90
24860;DHT22;12936;52.006;4.350;2022-11-20T14:25:05;5.50;99.90
24860;DHT22;12936;52.006;4.350;2022-11-20T14:27:35;5.50;99.90
24860;DHT22;12936;52.006;4.350;2022-11-20T14:30:05;5.50;99.90
24860;DHT22;12936;52.006;4.350;2022-11-20T14:32:35;5.50;99.90
24860;DHT22;12936;52.006;4.350;2022-11-20T14:35:08;5.50;99.90
24860;DHT22;12936;52.006;4.350;2022-11-20T14:37:39;5.40;99.90
24860;DHT22;12936;52.006;4.350;2022-11-20T14:40:31;5.40;99.90
24860;DHT22;12936;52.006;4.350;2022-11-20T14:43:19;5.40;99.90
24860;DHT22;12936;52.006;4.350;2022-11-20T14:45:55;5.40;99.90
24860;DHT22;12936;52.006;4.350;2022-11-20T14:48:28;5.40;99.90
24860;DHT22;12936;52.006;4.350;2022-11-20T14:50:57;5.40;99.90
24860;DHT22;12936;52.006;4.350;2022-11-20T14:53:26;5.40;99.90
24860;DHT22;12936;52.006;4.350;2022-11-20T14:55:56;5.30;99.90
24860;DHT22;12936;52.006;4.350;2022-11-20T14:58:27;5.30;99.90
24860;DHT22;12936;52.006;4.350;2022-11-20T15:00:57;5.30;99.90
24860;DHT22;12936;52.006;4.350;2022-11-20T15:03:31;5.30;99.90
24860;DHT22;12936;52.006;4.350;2022-11-20T15:05:59;5.40;99.90
24860;DHT22;12936;52.006;4.350;2022-11-20T15:08:29;5.30;99.90
24860;DHT22;12936;52.006;4.350;2022-11-20T15:10:58;5.40;99.90
24860;DHT22;12936;52.006;4.350;2022-11-20T15:13:29;5.40;99.90
24860;DHT22;12936;52.006;4.350;2022-11-20T15:16:00;5.30;99.90
24860;DHT22;12936;52.006;4.350;2022-11-20T15:18:32;5.30;99.90
24860;DHT22;12936;52.006;4.350;2022-11-20T15:21:02;5.30;99.90
24860;DHT22;12936;52.006;4.350;2022-11-20T15:23:32;5.30;99.90
24860;DHT22;12936;52.006;4.350;2022-11-20T15:26:00;5.30;99.90
24860;DHT22;12936;52.006;4.350;2022-11-20T15:28:30;5.30;99.90
24860;DHT22;12936;52.006;4.350;2022-11-20T15:30:59;5.30;99.90
24860;DHT22;12936;52.006;4.350;2022-11-20T15:33:29;5.30;99.90
24860;DHT22;12936;52.006;4.350;2022-11-20T15:35:57;5.40;99.90
24860;DHT22;12936;52.006;4.350;2022-11-20T15:38:25;5.40;99.90
24860;DHT22;12936;52.006;4.350;2022-11-20T15:40:55;5.40;99.90
24860;DHT22;12936;52.006;4.350;2022-11-20T15:43:24;5.40;99.90
24860;DHT22;12936;52.006;4.350;2022-11-20T15:45:54;5.40;99.90
24860;DHT22;12936;52.006;4.350;2022-11-20T15:48:26;5.50;99.90
24860;DHT22;12936;52.006;4.350;2022-11-20T15:50:58;5.60;99.90
24860;DHT22;12936;52.006;4.350;2022-11-20T15:53:28;5.50;99.90
24860;DHT22;12936;52.006;4.350;2022-11-20T15:55:57;5.50;99.90
24860;DHT22;12936;52.006;4.350;2022-11-20T15:58:25;5.50;99.90
24860;DHT22;12936;52.006;4.350;2022-11-20T16:00:53;5.50;99.90
24860;DHT22;12936;52.006;4.350;2022-11-20T16:03:22;5.50;99.90
24860;DHT22;12936;52.006;4.350;2022-11-20T16:05:50;5.50;99.90
24860;DHT22;12936;52.006;4.350;2022-11-20T16:08:18;5.50;99.90
24860;DHT22;12936;52.006;4.350;2022-11-20T16:10:46;5.50;99.90
24860;DHT22;12936;52.006;4.350;2022-11-20T16:13:17;5.50;99.90
24860;DHT22;12936;52.006;4.350;2022-11-20T16:16:04;5.50;99.90
24860;DHT22;12936;52.006;4.350;2022-11-20T16:18:33;5.50;99.90
24860;DHT22;12936;52.006;4.350;2022-11-20T16:21:01;5.50;99.90